Latrobe, Pennsylvania
Current Conditions -  °F | °C
As of 11:15 PM on Thursday 27 Nov 2014 (Local Time) from KLBE Reporting Station
Overcast Overcast  
Wind Chill: 20°   Ceiling: 2300
Heat Index: 28°   Visibility: 10mi
Dew Point: 25°   Wind: 8mph
Humidity: 86%   Direction: 250°WSW
Pressure: 30.21"   Gusts: NA
Location:  40.32°N, 79.38°W
Report Text: KLBE 280415Z AUTO 25007KT 10SM FEW018 BKN023 OVC050 M02/M04 A3021 RMK AO2
Loading
Personal Weather Stations






























Interactive Weather Map New forecast layout! Learn more

10-Day Weather Forecast

Advertisements
Track Severe Weather on mobile